createdAt,value
2023-01-06T00:04:25.592Z,14.18
2023-01-06T00:10:27.695Z,12.52
2023-01-06T00:16:30.721Z,11.85
2023-01-06T00:22:32.436Z,11.55
2023-01-06T00:28:35.560Z,11.38
2023-01-06T00:34:37.334Z,12.70
2023-01-06T00:40:39.116Z,10.93
2023-01-06T00:46:40.926Z,10.77
2023-01-06T00:52:42.637Z,10.82
2023-01-06T00:58:44.442Z,9.45
2023-01-06T01:04:46.218Z,7.57
2023-01-06T01:10:47.975Z,7.90
2023-01-06T01:16:49.776Z,5.82
2023-01-06T01:22:51.479Z,5.53
2023-01-06T01:28:53.262Z,4.55
2023-01-06T01:34:54.976Z,4.43
2023-01-06T01:40:56.780Z,4.30
2023-01-06T01:46:58.682Z,4.10
2023-01-06T01:53:24.060Z,4.13
2023-01-06T01:59:31.015Z,4.38
2023-01-06T02:05:37.081Z,5.57
2023-01-06T02:11:40.635Z,6.20
2023-01-06T02:18:08.542Z,6.82
2023-01-06T02:24:31.303Z,7.80
2023-01-06T02:30:38.881Z,8.27
2023-01-06T02:36:45.251Z,8.23
2023-01-06T02:42:59.782Z,8.35
2023-01-06T02:49:24.777Z,8.18
2023-01-06T03:01:38.299Z,7.82
2023-01-06T03:07:42.532Z,8.80
2023-01-06T03:13:56.111Z,7.63
2023-01-06T03:19:57.967Z,6.95
2023-01-06T03:25:59.671Z,6.70
2023-01-06T03:32:17.627Z,6.55
2023-01-06T03:38:34.392Z,6.70
2023-01-06T03:44:55.466Z,6.53
2023-01-06T03:51:07.226Z,6.07
2023-01-06T03:57:08.878Z,4.90
2023-01-06T04:03:13.859Z,5.15
2023-01-06T04:09:15.804Z,5.13
2023-01-06T04:15:22.493Z,4.30
2023-01-06T04:21:24.210Z,4.13
2023-01-06T04:27:25.969Z,4.38
2023-01-06T04:33:28.625Z,3.28
2023-01-06T04:39:30.359Z,2.90
2023-01-06T04:45:33.357Z,2.63
2023-01-06T04:51:35.206Z,1.95
2023-01-06T04:57:36.993Z,2.50
2023-01-06T05:03:39.488Z,1.75
2023-01-06T05:09:41.229Z,1.60
2023-01-06T05:15:43.024Z,1.40
2023-01-06T05:21:44.784Z,1.10
2023-01-06T05:27:46.556Z,1.00
2023-01-06T05:33:48.383Z,1.40
2023-01-06T05:39:50.130Z,1.25
2023-01-06T05:45:52.852Z,1.52
2023-01-06T05:51:54.720Z,1.38
2023-01-06T05:57:56.533Z,1.30
2023-01-06T06:03:58.418Z,1.30
2023-01-06T06:10:00.189Z,1.10
2023-01-06T06:16:13.386Z,1.20
2023-01-06T06:22:15.370Z,1.50
2023-01-06T06:28:17.111Z,1.20
2023-01-06T06:34:18.892Z,1.25
2023-01-06T06:40:20.577Z,1.45
2023-01-06T06:46:22.879Z,1.25
2023-01-06T06:52:24.636Z,1.00
2023-01-06T06:58:26.621Z,1.58
2023-01-06T07:04:28.393Z,1.00
2023-01-06T07:10:30.158Z,1.42
2023-01-06T07:16:31.989Z,1.05
2023-01-06T07:22:37.540Z,1.00
2023-01-06T07:28:39.282Z,1.05
2023-01-06T07:34:41.204Z,1.20
2023-01-06T07:40:43.072Z,1.30
2023-01-06T07:46:44.793Z,1.20
2023-01-06T07:52:46.507Z,1.30
2023-01-06T07:58:48.361Z,1.30
2023-01-06T08:04:50.268Z,1.40
2023-01-06T08:10:52.061Z,1.30
2023-01-06T08:16:53.792Z,1.38
2023-01-06T08:22:57.198Z,1.13
2023-01-06T08:28:58.927Z,1.00
2023-01-06T08:35:00.677Z,1.20
2023-01-06T08:41:03.039Z,1.05
2023-01-06T08:47:04.919Z,1.38
2023-01-06T08:53:07.276Z,1.13
2023-01-06T08:59:13.445Z,1.58
2023-01-06T09:05:16.359Z,1.25
2023-01-06T09:11:18.386Z,1.08
2023-01-06T09:17:20.089Z,1.08
2023-01-06T09:23:23.579Z,1.67
2023-01-06T09:29:25.381Z,1.10
2023-01-06T09:35:27.187Z,1.30
2023-01-06T09:41:35.150Z,2.20
2023-01-06T09:47:42.473Z,1.30
2023-01-06T09:53:51.386Z,1.50
2023-01-06T10:00:05.911Z,1.52
2023-01-06T10:06:34.791Z,1.80
2023-01-06T10:12:58.928Z,1.98
2023-01-06T10:19:19.179Z,2.23
2023-01-06T10:25:51.549Z,2.50
2023-01-06T10:31:54.992Z,2.85
2023-01-06T10:37:59.084Z,2.67
2023-01-06T10:44:01.008Z,2.95
2023-01-06T10:50:02.852Z,2.85
2023-01-06T10:56:04.855Z,2.75
2023-01-06T11:02:22.538Z,3.28
2023-01-06T11:08:24.922Z,3.58
2023-01-06T11:14:30.608Z,3.95
2023-01-06T11:20:34.651Z,4.10
2023-01-06T11:26:54.539Z,3.75
2023-01-06T11:32:56.353Z,3.30
2023-01-06T11:39:04.528Z,2.70
2023-01-06T11:45:06.792Z,2.17
2023-01-06T11:51:10.011Z,1.90
2023-01-06T11:57:25.433Z,1.45
2023-01-06T12:03:50.982Z,1.10
2023-01-06T12:09:53.953Z,1.30
2023-01-06T12:16:06.451Z,1.00
2023-01-06T12:22:40.549Z,1.23
2023-01-06T12:28:45.294Z,1.00
2023-01-06T12:34:50.037Z,1.27
2023-01-06T12:41:03.345Z,1.02
2023-01-06T12:47:17.296Z,1.15
2023-01-06T12:53:25.739Z,1.20
2023-01-06T12:59:46.892Z,0.95
2023-01-06T13:06:23.333Z,0.80
2023-01-06T13:12:50.850Z,0.90
2023-01-06T13:19:25.737Z,1.08
2023-01-06T13:26:01.501Z,1.10
2023-01-06T13:32:27.614Z,1.02
2023-01-06T13:38:48.221Z,1.15
2023-01-06T13:44:50.401Z,1.00
2023-01-06T13:50:52.526Z,1.20
2023-01-06T13:57:20.335Z,1.20
2023-01-06T14:03:24.280Z,1.30
2023-01-06T14:09:26.935Z,1.77
2023-01-06T14:15:34.566Z,1.70
2023-01-06T14:21:36.459Z,1.92
2023-01-06T14:28:05.762Z,2.00
2023-01-06T14:34:10.931Z,2.70
2023-01-06T14:40:26.767Z,2.85
2023-01-06T14:46:39.479Z,2.90
2023-01-06T14:52:47.975Z,2.80
2023-01-06T14:58:49.741Z,3.10
2023-01-06T15:04:57.068Z,3.15
2023-01-06T15:11:33.420Z,2.90
2023-01-06T15:17:35.265Z,3.53
2023-01-06T15:23:43.912Z,3.47
2023-01-06T15:29:57.390Z,3.55
2023-01-06T15:35:59.946Z,4.22
2023-01-06T15:42:04.848Z,4.38
2023-01-06T15:48:16.077Z,4.10
2023-01-06T15:54:17.907Z,4.13
2023-01-06T16:00:23.545Z,5.03
2023-01-06T16:06:27.937Z,5.30
2023-01-06T16:12:29.904Z,5.68
2023-01-06T16:18:34.222Z,5.78
2023-01-06T16:24:36.182Z,5.07
2023-01-06T16:30:38.235Z,4.85
2023-01-06T16:36:39.952Z,5.40
2023-01-06T16:42:43.002Z,5.88
2023-01-06T16:48:44.821Z,5.80
2023-01-06T16:54:53.353Z,5.78
2023-01-06T17:00:58.270Z,6.18
2023-01-06T17:07:00.351Z,7.22
2023-01-06T17:13:22.851Z,6.80
2023-01-06T17:19:27.190Z,6.30
2023-01-06T17:25:30.843Z,6.30
2023-01-06T17:31:37.386Z,6.70
2023-01-06T17:37:39.181Z,6.88
2023-01-06T17:43:41.129Z,5.35
2023-01-06T17:49:54.875Z,5.90
2023-01-06T17:55:59.058Z,6.53
2023-01-06T18:02:01.882Z,6.50
2023-01-06T18:08:12.645Z,6.53
2023-01-06T18:14:24.177Z,7.25
2023-01-06T18:20:26.058Z,7.25
2023-01-06T18:26:27.833Z,7.10
2023-01-06T18:32:33.550Z,6.97
2023-01-06T18:38:35.359Z,7.45
2023-01-06T18:44:37.237Z,8.20
2023-01-06T18:50:41.856Z,8.32
2023-01-06T19:02:45.742Z,9.27
2023-01-06T19:08:49.665Z,10.00
2023-01-06T19:14:53.157Z,9.63
2023-01-06T19:20:54.975Z,9.85
2023-01-06T19:26:59.617Z,9.95
2023-01-06T19:39:26.330Z,9.85
2023-01-06T19:45:32.491Z,10.30
2023-01-06T19:51:36.140Z,10.48
2023-01-06T19:57:41.195Z,11.30
2023-01-06T20:03:46.769Z,12.23
2023-01-06T20:09:49.148Z,11.93
2023-01-06T20:15:51.040Z,13.77
2023-01-06T20:21:52.778Z,12.38
2023-01-06T20:27:54.513Z,13.13
2023-01-06T20:33:56.508Z,12.63
2023-01-06T20:39:58.607Z,13.25
2023-01-06T20:46:00.434Z,13.57
2023-01-06T20:52:02.229Z,13.00
2023-01-06T20:58:03.950Z,14.07
2023-01-06T21:04:05.649Z,15.25
2023-01-06T21:10:08.618Z,14.75
2023-01-06T21:16:10.404Z,14.25
2023-01-06T21:22:12.114Z,13.57
2023-01-06T21:28:13.922Z,14.45
2023-01-06T21:34:15.715Z,13.82
2023-01-06T21:40:17.583Z,14.00
2023-01-06T21:46:19.379Z,12.45
2023-01-06T21:52:21.305Z,13.57
2023-01-06T21:58:23.524Z,12.57
2023-01-06T22:04:25.281Z,14.43
2023-01-06T22:10:27.728Z,13.82
2023-01-06T22:16:30.153Z,14.23
2023-01-06T22:22:33.392Z,13.32
2023-01-06T22:28:35.207Z,14.07
2023-01-06T22:34:37.329Z,14.15
2023-01-06T22:40:39.511Z,13.60
2023-01-06T22:46:41.280Z,13.30
2023-01-06T22:52:43.112Z,13.32
2023-01-06T22:58:45.355Z,13.13
2023-01-06T23:04:47.076Z,12.68
2023-01-06T23:10:48.936Z,12.95
2023-01-06T23:16:50.695Z,13.13
2023-01-06T23:22:52.402Z,11.90
2023-01-06T23:28:55.517Z,11.13
2023-01-06T23:34:57.307Z,11.02
2023-01-06T23:41:10.940Z,9.43
2023-01-06T23:47:12.741Z,8.80
2023-01-06T23:53:14.460Z,7.75
2023-01-06T23:59:16.338Z,8.57
